sensor_id;sensor_type;location;lat;lon;timestamp;temperature;humidity
52187;DHT22;38161;53.020;6.598;2023-08-17T00:00:00;16.30;99.90
52187;DHT22;38161;53.020;6.598;2023-08-17T00:02:26;16.30;99.90
52187;DHT22;38161;53.020;6.598;2023-08-17T00:04:52;16.30;99.90
52187;DHT22;38161;53.020;6.598;2023-08-17T00:07:18;16.20;99.90
52187;DHT22;38161;53.020;6.598;2023-08-17T00:09:44;16.20;99.90
52187;DHT22;38161;53.020;6.598;2023-08-17T00:12:10;16.30;99.90
52187;DHT22;38161;53.020;6.598;2023-08-17T00:14:35;16.20;99.90
52187;DHT22;38161;53.020;6.598;2023-08-17T00:17:01;16.20;99.90
52187;DHT22;38161;53.020;6.598;2023-08-17T00:19:28;16.20;99.90
52187;DHT22;38161;53.020;6.598;2023-08-17T00:21:54;16.20;99.90
52187;DHT22;38161;53.020;6.598;2023-08-17T00:24:20;16.20;99.90
52187;DHT22;38161;53.020;6.598;2023-08-17T00:26:46;16.20;99.90
52187;DHT22;38161;53.020;6.598;2023-08-17T00:29:12;16.20;99.90
52187;DHT22;38161;53.020;6.598;2023-08-17T00:31:41;16.30;99.90
52187;DHT22;38161;53.020;6.598;2023-08-17T00:34:06;16.20;99.90
52187;DHT22;38161;53.020;6.598;2023-08-17T00:36:35;16.20;99.90
52187;DHT22;38161;53.020;6.598;2023-08-17T00:39:01;16.20;99.90
52187;DHT22;38161;53.020;6.598;2023-08-17T00:41:27;16.20;99.90
52187;DHT22;38161;53.020;6.598;2023-08-17T00:43:54;16.20;99.90
52187;DHT22;38161;53.020;6.598;2023-08-17T00:46:20;16.20;99.90
52187;DHT22;38161;53.020;6.598;2023-08-17T00:48:48;16.20;99.90
52187;DHT22;38161;53.020;6.598;2023-08-17T00:51:14;16.10;99.90
52187;DHT22;38161;53.020;6.598;2023-08-17T00:53:40;16.00;99.90
52187;DHT22;38161;53.020;6.598;2023-08-17T00:56:07;16.10;99.90
52187;DHT22;38161;53.020;6.598;2023-08-17T00:58:34;16.10;99.90
52187;DHT22;38161;53.020;6.598;2023-08-17T01:01:00;16.10;99.90
52187;DHT22;38161;53.020;6.598;2023-08-17T01:03:28;16.10;99.90
52187;DHT22;38161;53.020;6.598;2023-08-17T01:05:57;16.10;99.90
52187;DHT22;38161;53.020;6.598;2023-08-17T01:08:23;16.10;99.90
52187;DHT22;38161;53.020;6.598;2023-08-17T01:16:42;16.00;99.90
52187;DHT22;38161;53.020;6.598;2023-08-17T01:19:09;16.00;99.90
52187;DHT22;38161;53.020;6.598;2023-08-17T01:21:41;16.00;99.90
52187;DHT22;38161;53.020;6.598;2023-08-17T01:24:11;15.90;99.90
52187;DHT22;38161;53.020;6.598;2023-08-17T01:26:37;15.90;99.90
52187;DHT22;38161;53.020;6.598;2023-08-17T01:29:03;15.90;99.90
52187;DHT22;38161;53.020;6.598;2023-08-17T01:31:39;15.90;99.90
52187;DHT22;38161;53.020;6.598;2023-08-17T01:34:10;15.80;99.90
52187;DHT22;38161;53.020;6.598;2023-08-17T01:36:53;15.80;99.90
52187;DHT22;38161;53.020;6.598;2023-08-17T01:39:26;15.80;99.90
52187;DHT22;38161;53.020;6.598;2023-08-17T01:41:55;15.80;99.90
52187;DHT22;38161;53.020;6.598;2023-08-17T01:44:22;15.70;99.90
52187;DHT22;38161;53.020;6.598;2023-08-17T01:46:48;15.70;99.90
52187;DHT22;38161;53.020;6.598;2023-08-17T01:49:14;15.70;99.90
52187;DHT22;38161;53.020;6.598;2023-08-17T01:51:40;15.70;99.90
52187;DHT22;38161;53.020;6.598;2023-08-17T01:54:06;15.60;99.90
52187;DHT22;38161;53.020;6.598;2023-08-17T01:56:32;15.60;99.90
52187;DHT22;38161;53.020;6.598;2023-08-17T01:58:58;15.60;99.90
52187;DHT22;38161;53.020;6.598;2023-08-17T02:01:24;15.60;99.90
52187;DHT22;38161;53.020;6.598;2023-08-17T02:03:51;15.60;99.90
52187;DHT22;38161;53.020;6.598;2023-08-17T02:06:17;15.60;99.90
52187;DHT22;38161;53.020;6.598;2023-08-17T02:08:44;15.60;99.90
52187;DHT22;38161;53.020;6.598;2023-08-17T02:11:10;15.60;99.90
52187;DHT22;38161;53.020;6.598;2023-08-17T02:13:36;15.60;99.90
52187;DHT22;38161;53.020;6.598;2023-08-17T02:16:06;15.60;99.90
52187;DHT22;38161;53.020;6.598;2023-08-17T02:18:32;15.50;99.90
52187;DHT22;38161;53.020;6.598;2023-08-17T02:21:00;15.50;99.90
52187;DHT22;38161;53.020;6.598;2023-08-17T02:23:26;15.50;99.90
52187;DHT22;38161;53.020;6.598;2023-08-17T02:25:51;15.60;99.90
52187;DHT22;38161;53.020;6.598;2023-08-17T02:28:17;15.60;99.90
52187;DHT22;38161;53.020;6.598;2023-08-17T02:30:43;15.60;99.90
52187;DHT22;38161;53.020;6.598;2023-08-17T02:33:09;15.60;99.90
52187;DHT22;38161;53.020;6.598;2023-08-17T02:35:35;15.60;99.90
52187;DHT22;38161;53.020;6.598;2023-08-17T02:38:01;15.60;99.90
52187;DHT22;38161;53.020;6.598;2023-08-17T02:40:27;15.50;99.90
52187;DHT22;38161;53.020;6.598;2023-08-17T02:42:53;15.60;99.90
52187;DHT22;38161;53.020;6.598;2023-08-17T02:45:18;15.60;99.90
52187;DHT22;38161;53.020;6.598;2023-08-17T02:47:44;15.60;99.90
52187;DHT22;38161;53.020;6.598;2023-08-17T02:50:10;15.60;99.90
52187;DHT22;38161;53.020;6.598;2023-08-17T02:52:36;15.60;99.90
52187;DHT22;38161;53.020;6.598;2023-08-17T02:55:03;15.60;99.90
52187;DHT22;38161;53.020;6.598;2023-08-17T02:57:28;15.60;99.90
52187;DHT22;38161;53.020;6.598;2023-08-17T02:59:54;15.60;99.90
52187;DHT22;38161;53.020;6.598;2023-08-17T03:02:20;15.60;99.90
52187;DHT22;38161;53.020;6.598;2023-08-17T03:04:46;15.60;99.90
52187;DHT22;38161;53.020;6.598;2023-08-17T03:07:12;15.60;99.90
52187;DHT22;38161;53.020;6.598;2023-08-17T03:09:37;15.60;99.90
52187;DHT22;38161;53.020;6.598;2023-08-17T03:12:04;15.60;99.90
52187;DHT22;38161;53.020;6.598;2023-08-17T03:14:30;15.50;99.90
52187;DHT22;38161;53.020;6.598;2023-08-17T03:16:55;15.50;99.90
52187;DHT22;38161;53.020;6.598;2023-08-17T03:19:21;15.50;99.90
52187;DHT22;38161;53.020;6.598;2023-08-17T03:21:47;15.60;99.90
52187;DHT22;38161;53.020;6.598;2023-08-17T03:24:13;15.60;99.90
52187;DHT22;38161;53.020;6.598;2023-08-17T03:26:39;15.60;99.90
52187;DHT22;38161;53.020;6.598;2023-08-17T03:29:04;15.50;99.90
52187;DHT22;38161;53.020;6.598;2023-08-17T03:31:30;15.50;99.90
52187;DHT22;38161;53.020;6.598;2023-08-17T03:33:56;15.60;99.90
52187;DHT22;38161;53.020;6.598;2023-08-17T03:36:23;15.50;99.90
52187;DHT22;38161;53.020;6.598;2023-08-17T03:38:48;15.50;99.90
52187;DHT22;38161;53.020;6.598;2023-08-17T03:41:14;15.50;99.90
52187;DHT22;38161;53.020;6.598;2023-08-17T03:43:40;15.50;99.90
52187;DHT22;38161;53.020;6.598;2023-08-17T03:46:06;15.50;99.90
52187;DHT22;38161;53.020;6.598;2023-08-17T03:48:31;15.50;99.90
52187;DHT22;38161;53.020;6.598;2023-08-17T03:50:57;15.50;99.90
52187;DHT22;38161;53.020;6.598;2023-08-17T03:53:23;15.50;99.90
52187;DHT22;38161;53.020;6.598;2023-08-17T03:55:50;15.50;99.90
52187;DHT22;38161;53.020;6.598;2023-08-17T03:58:17;15.50;99.90
52187;DHT22;38161;53.020;6.598;2023-08-17T04:00:52;15.40;99.90
52187;DHT22;38161;53.020;6.598;2023-08-17T04:03:21;15.50;99.90
52187;DHT22;38161;53.020;6.598;2023-08-17T04:05:47;15.50;99.90
52187;DHT22;38161;53.020;6.598;2023-08-17T04:08:13;15.50;99.90
52187;DHT22;38161;53.020;6.598;2023-08-17T04:10:39;15.50;99.90
52187;DHT22;38161;53.020;6.598;2023-08-17T04:13:05;15.50;99.90
52187;DHT22;38161;53.020;6.598;2023-08-17T04:15:31;15.50;99.90
52187;DHT22;38161;53.020;6.598;2023-08-17T04:17:56;15.50;99.90
52187;DHT22;38161;53.020;6.598;2023-08-17T04:20:22;15.50;99.90
52187;DHT22;38161;53.020;6.598;2023-08-17T04:22:48;15.40;99.90
52187;DHT22;38161;53.020;6.598;2023-08-17T04:25:15;15.40;99.90
52187;DHT22;38161;53.020;6.598;2023-08-17T04:27:40;15.40;99.90
52187;DHT22;38161;53.020;6.598;2023-08-17T04:30:07;15.40;99.90
52187;DHT22;38161;53.020;6.598;2023-08-17T04:32:33;15.40;99.90
52187;DHT22;38161;53.020;6.598;2023-08-17T04:34:59;15.30;99.90
52187;DHT22;38161;53.020;6.598;2023-08-17T04:37:24;15.30;99.90
52187;DHT22;38161;53.020;6.598;2023-08-17T04:39:50;15.30;99.90
52187;DHT22;38161;53.020;6.598;2023-08-17T04:42:16;15.40;99.90
52187;DHT22;38161;53.020;6.598;2023-08-17T04:44:42;15.40;99.90
52187;DHT22;38161;53.020;6.598;2023-08-17T04:47:09;15.40;99.90
52187;DHT22;38161;53.020;6.598;2023-08-17T04:49:34;15.30;99.90
52187;DHT22;38161;53.020;6.598;2023-08-17T04:52:00;15.30;99.90
52187;DHT22;38161;53.020;6.598;2023-08-17T04:54:26;15.30;99.90
52187;DHT22;38161;53.020;6.598;2023-08-17T04:56:52;15.30;99.90
52187;DHT22;38161;53.020;6.598;2023-08-17T04:59:17;15.30;99.90
52187;DHT22;38161;53.020;6.598;2023-08-17T05:01:43;15.30;99.90
52187;DHT22;38161;53.020;6.598;2023-08-17T05:04:09;15.30;99.90
52187;DHT22;38161;53.020;6.598;2023-08-17T05:06:35;15.30;99.90
52187;DHT22;38161;53.020;6.598;2023-08-17T05:09:02;15.30;99.90
52187;DHT22;38161;53.020;6.598;2023-08-17T05:11:28;15.30;99.90
52187;DHT22;38161;53.020;6.598;2023-08-17T05:13:54;15.30;99.90
52187;DHT22;38161;53.020;6.598;2023-08-17T05:16:20;15.30;99.90
52187;DHT22;38161;53.020;6.598;2023-08-17T05:18:46;15.40;99.90
52187;DHT22;38161;53.020;6.598;2023-08-17T05:21:12;15.40;99.90
52187;DHT22;38161;53.020;6.598;2023-08-17T05:23:37;15.50;99.90
52187;DHT22;38161;53.020;6.598;2023-08-17T05:26:03;15.50;99.90
52187;DHT22;38161;53.020;6.598;2023-08-17T05:28:29;15.50;99.90
52187;DHT22;38161;53.020;6.598;2023-08-17T05:30:55;15.50;99.90
52187;DHT22;38161;53.020;6.598;2023-08-17T05:33:21;15.50;99.90
52187;DHT22;38161;53.020;6.598;2023-08-17T05:35:48;15.50;99.90
52187;DHT22;38161;53.020;6.598;2023-08-17T05:38:19;15.50;99.90
52187;DHT22;38161;53.020;6.598;2023-08-17T05:40:45;15.50;99.90
52187;DHT22;38161;53.020;6.598;2023-08-17T05:43:11;15.50;99.90
52187;DHT22;38161;53.020;6.598;2023-08-17T05:45:37;15.50;99.90
52187;DHT22;38161;53.020;6.598;2023-08-17T05:48:03;15.50;99.90
52187;DHT22;38161;53.020;6.598;2023-08-17T05:50:29;15.50;99.90
52187;DHT22;38161;53.020;6.598;2023-08-17T05:52:56;15.60;99.90
52187;DHT22;38161;53.020;6.598;2023-08-17T05:55:22;15.50;99.90
52187;DHT22;38161;53.020;6.598;2023-08-17T05:57:48;15.50;99.90
52187;DHT22;38161;53.020;6.598;2023-08-17T06:00:14;15.60;99.90
52187;DHT22;38161;53.020;6.598;2023-08-17T06:02:41;15.60;99.90
52187;DHT22;38161;53.020;6.598;2023-08-17T06:05:07;15.60;99.90
52187;DHT22;38161;53.020;6.598;2023-08-17T06:07:34;15.60;99.90
52187;DHT22;38161;53.020;6.598;2023-08-17T06:10:02;15.70;99.90
52187;DHT22;38161;53.020;6.598;2023-08-17T06:12:29;15.70;99.90
52187;DHT22;38161;53.020;6.598;2023-08-17T06:14:54;15.70;99.90
52187;DHT22;38161;53.020;6.598;2023-08-17T06:17:20;15.70;99.90
52187;DHT22;38161;53.020;6.598;2023-08-17T06:19:46;15.80;99.90
52187;DHT22;38161;53.020;6.598;2023-08-17T06:22:11;15.80;99.90
52187;DHT22;38161;53.020;6.598;2023-08-17T06:24:37;15.80;99.90
52187;DHT22;38161;53.020;6.598;2023-08-17T06:27:03;15.90;99.90
52187;DHT22;38161;53.020;6.598;2023-08-17T06:29:29;15.90;99.90
52187;DHT22;38161;53.020;6.598;2023-08-17T06:31:55;15.90;99.90
52187;DHT22;38161;53.020;6.598;2023-08-17T06:34:21;15.90;99.90
52187;DHT22;38161;53.020;6.598;2023-08-17T06:36:57;16.00;99.90
52187;DHT22;38161;53.020;6.598;2023-08-17T06:39:24;16.00;99.90
52187;DHT22;38161;53.020;6.598;2023-08-17T06:41:50;16.00;99.90
52187;DHT22;38161;53.020;6.598;2023-08-17T06:44:15;16.10;99.90
52187;DHT22;38161;53.020;6.598;2023-08-17T06:46:41;16.10;99.90
52187;DHT22;38161;53.020;6.598;2023-08-17T06:49:07;16.10;99.90
52187;DHT22;38161;53.020;6.598;2023-08-17T06:51:34;16.10;99.90
52187;DHT22;38161;53.020;6.598;2023-08-17T06:54:00;16.10;99.90
52187;DHT22;38161;53.020;6.598;2023-08-17T06:56:25;16.20;99.90
52187;DHT22;38161;53.020;6.598;2023-08-17T06:58:51;16.20;99.90
52187;DHT22;38161;53.020;6.598;2023-08-17T07:01:17;16.20;99.90
52187;DHT22;38161;53.020;6.598;2023-08-17T07:03:43;16.20;99.90
52187;DHT22;38161;53.020;6.598;2023-08-17T07:06:10;16.30;99.90
52187;DHT22;38161;53.020;6.598;2023-08-17T07:08:36;16.30;99.90
52187;DHT22;38161;53.020;6.598;2023-08-17T07:11:01;16.40;99.90
52187;DHT22;38161;53.020;6.598;2023-08-17T07:13:29;16.40;99.90
52187;DHT22;38161;53.020;6.598;2023-08-17T07:15:55;16.50;99.90
52187;DHT22;38161;53.020;6.598;2023-08-17T07:18:21;16.50;99.90
52187;DHT22;38161;53.020;6.598;2023-08-17T07:20:47;16.60;99.90
52187;DHT22;38161;53.020;6.598;2023-08-17T07:23:13;16.60;99.90
52187;DHT22;38161;53.020;6.598;2023-08-17T07:25:39;16.60;99.90
52187;DHT22;38161;53.020;6.598;2023-08-17T07:28:04;16.60;99.90
52187;DHT22;38161;53.020;6.598;2023-08-17T07:30:30;16.60;99.90
52187;DHT22;38161;53.020;6.598;2023-08-17T07:32:56;16.60;99.90
52187;DHT22;38161;53.020;6.598;2023-08-17T07:35:22;16.60;99.90
52187;DHT22;38161;53.020;6.598;2023-08-17T07:37:48;16.60;99.90
52187;DHT22;38161;53.020;6.598;2023-08-17T07:40:14;16.60;99.90
52187;DHT22;38161;53.020;6.598;2023-08-17T07:42:40;16.70;99.90
52187;DHT22;38161;53.020;6.598;2023-08-17T07:45:06;16.70;99.90
52187;DHT22;38161;53.020;6.598;2023-08-17T07:47:36;16.70;99.90
52187;DHT22;38161;53.020;6.598;2023-08-17T07:50:03;16.70;99.90
52187;DHT22;38161;53.020;6.598;2023-08-17T07:52:29;16.80;99.90
52187;DHT22;38161;53.020;6.598;2023-08-17T07:54:55;16.90;99.90
52187;DHT22;38161;53.020;6.598;2023-08-17T07:57:21;16.90;99.90
52187;DHT22;38161;53.020;6.598;2023-08-17T07:59:47;17.00;99.90
52187;DHT22;38161;53.020;6.598;2023-08-17T08:02:13;17.00;99.90
52187;DHT22;38161;53.020;6.598;2023-08-17T08:04:39;17.00;99.90
52187;DHT22;38161;53.020;6.598;2023-08-17T08:07:05;17.10;99.90
52187;DHT22;38161;53.020;6.598;2023-08-17T08:09:31;17.10;99.90
52187;DHT22;38161;53.020;6.598;2023-08-17T08:11:57;17.10;99.90
52187;DHT22;38161;53.020;6.598;2023-08-17T08:14:23;17.10;99.90
52187;DHT22;38161;53.020;6.598;2023-08-17T08:16:49;17.10;99.90
52187;DHT22;38161;53.020;6.598;2023-08-17T08:19:15;17.10;99.90
52187;DHT22;38161;53.020;6.598;2023-08-17T08:21:40;17.10;99.90
52187;DHT22;38161;53.020;6.598;2023-08-17T08:24:07;17.20;99.90
52187;DHT22;38161;53.020;6.598;2023-08-17T08:26:33;17.10;99.90
52187;DHT22;38161;53.020;6.598;2023-08-17T08:28:59;17.20;99.90
52187;DHT22;38161;53.020;6.598;2023-08-17T08:31:25;17.30;99.90
52187;DHT22;38161;53.020;6.598;2023-08-17T08:33:50;17.30;99.90
52187;DHT22;38161;53.020;6.598;2023-08-17T08:36:18;17.40;99.90
52187;DHT22;38161;53.020;6.598;2023-08-17T08:38:44;17.60;99.90
52187;DHT22;38161;53.020;6.598;2023-08-17T08:41:12;17.80;99.90
52187;DHT22;38161;53.020;6.598;2023-08-17T08:43:38;17.90;99.90
52187;DHT22;38161;53.020;6.598;2023-08-17T08:46:05;18.10;99.90
52187;DHT22;38161;53.020;6.598;2023-08-17T08:48:32;18.10;99.90
52187;DHT22;38161;53.020;6.598;2023-08-17T08:51:00;18.10;99.90
52187;DHT22;38161;53.020;6.598;2023-08-17T08:53:38;18.20;99.90
52187;DHT22;38161;53.020;6.598;2023-08-17T08:56:07;18.20;99.90
52187;DHT22;38161;53.020;6.598;2023-08-17T08:58:36;18.20;99.90
52187;DHT22;38161;53.020;6.598;2023-08-17T09:01:02;18.20;99.90
52187;DHT22;38161;53.020;6.598;2023-08-17T09:03:30;18.20;99.90
52187;DHT22;38161;53.020;6.598;2023-08-17T09:05:57;18.20;99.90
52187;DHT22;38161;53.020;6.598;2023-08-17T09:08:27;18.30;99.90
52187;DHT22;38161;53.020;6.598;2023-08-17T09:10:54;18.30;99.90
52187;DHT22;38161;53.020;6.598;2023-08-17T09:13:20;18.30;99.90
52187;DHT22;38161;53.020;6.598;2023-08-17T09:15:46;18.30;99.90
52187;DHT22;38161;53.020;6.598;2023-08-17T09:18:12;18.30;99.90
52187;DHT22;38161;53.020;6.598;2023-08-17T09:20:43;18.30;99.90
52187;DHT22;38161;53.020;6.598;2023-08-17T09:23:14;18.40;99.90
52187;DHT22;38161;53.020;6.598;2023-08-17T09:25:42;18.40;99.90
52187;DHT22;38161;53.020;6.598;2023-08-17T09:28:13;18.40;99.90
52187;DHT22;38161;53.020;6.598;2023-08-17T09:30:50;18.40;99.90
52187;DHT22;38161;53.020;6.598;2023-08-17T09:33:26;18.40;99.90
52187;DHT22;38161;53.020;6.598;2023-08-17T09:35:54;18.40;99.90
52187;DHT22;38161;53.020;6.598;2023-08-17T09:38:21;18.50;99.90
52187;DHT22;38161;53.020;6.598;2023-08-17T09:40:47;18.60;99.90
52187;DHT22;38161;53.020;6.598;2023-08-17T09:43:17;18.70;99.90
52187;DHT22;38161;53.020;6.598;2023-08-17T09:45:44;18.70;99.90
52187;DHT22;38161;53.020;6.598;2023-08-17T09:48:15;18.80;99.90
52187;DHT22;38161;53.020;6.598;2023-08-17T09:50:45;18.80;99.90
52187;DHT22;38161;53.020;6.598;2023-08-17T09:53:16;18.80;99.90
52187;DHT22;38161;53.020;6.598;2023-08-17T09:55:46;18.80;99.90
52187;DHT22;38161;53.020;6.598;2023-08-17T09:58:12;18.80;99.90
52187;DHT22;38161;53.020;6.598;2023-08-17T10:00:49;18.90;99.90
52187;DHT22;38161;53.020;6.598;2023-08-17T10:03:16;18.90;99.90
52187;DHT22;38161;53.020;6.598;2023-08-17T10:05:44;18.90;99.90
52187;DHT22;38161;53.020;6.598;2023-08-17T10:08:11;18.80;99.90
52187;DHT22;38161;53.020;6.598;2023-08-17T10:10:44;18.80;99.90
52187;DHT22;38161;53.020;6.598;2023-08-17T10:13:22;18.90;99.90
52187;DHT22;38161;53.020;6.598;2023-08-17T10:16:06;19.00;99.90
52187;DHT22;38161;53.020;6.598;2023-08-17T10:18:37;19.30;99.90
52187;DHT22;38161;53.020;6.598;2023-08-17T10:21:07;19.60;99.90
52187;DHT22;38161;53.020;6.598;2023-08-17T10:23:36;19.70;99.90
52187;DHT22;38161;53.020;6.598;2023-08-17T10:26:02;19.70;99.90
52187;DHT22;38161;53.020;6.598;2023-08-17T10:28:28;19.70;99.90
52187;DHT22;38161;53.020;6.598;2023-08-17T10:30:56;19.70;99.90
52187;DHT22;38161;53.020;6.598;2023-08-17T10:33:22;19.50;99.90
52187;DHT22;38161;53.020;6.598;2023-08-17T10:35:49;19.50;99.90
52187;DHT22;38161;53.020;6.598;2023-08-17T10:38:15;19.50;99.90
52187;DHT22;38161;53.020;6.598;2023-08-17T10:40:43;19.60;99.90
52187;DHT22;38161;53.020;6.598;2023-08-17T10:43:09;19.60;99.90
52187;DHT22;38161;53.020;6.598;2023-08-17T10:45:36;19.50;99.90
52187;DHT22;38161;53.020;6.598;2023-08-17T10:50:33;19.50;99.90
52187;DHT22;38161;53.020;6.598;2023-08-17T10:53:05;19.50;99.90
52187;DHT22;38161;53.020;6.598;2023-08-17T10:55:46;19.50;99.90
52187;DHT22;38161;53.020;6.598;2023-08-17T10:58:16;19.50;99.90
52187;DHT22;38161;53.020;6.598;2023-08-17T11:00:42;19.50;99.90
52187;DHT22;38161;53.020;6.598;2023-08-17T11:03:19;19.60;99.90
52187;DHT22;38161;53.020;6.598;2023-08-17T11:05:55;19.60;99.90
52187;DHT22;38161;53.020;6.598;2023-08-17T11:08:28;19.70;99.90
52187;DHT22;38161;53.020;6.598;2023-08-17T11:11:10;19.70;99.90
52187;DHT22;38161;53.020;6.598;2023-08-17T11:13:44;19.80;99.90
52187;DHT22;38161;53.020;6.598;2023-08-17T11:16:13;19.70;99.90
52187;DHT22;38161;53.020;6.598;2023-08-17T11:18:39;19.70;99.90
52187;DHT22;38161;53.020;6.598;2023-08-17T11:21:07;19.60;99.90
52187;DHT22;38161;53.020;6.598;2023-08-17T11:23:35;19.60;99.90
52187;DHT22;38161;53.020;6.598;2023-08-17T11:26:01;19.60;99.90
52187;DHT22;38161;53.020;6.598;2023-08-17T11:28:29;19.50;99.90
52187;DHT22;38161;53.020;6.598;2023-08-17T11:31:02;19.50;99.90
52187;DHT22;38161;53.020;6.598;2023-08-17T11:33:30;19.40;99.90
52187;DHT22;38161;53.020;6.598;2023-08-17T11:35:57;19.40;99.90
52187;DHT22;38161;53.020;6.598;2023-08-17T11:38:23;19.40;99.90
52187;DHT22;38161;53.020;6.598;2023-08-17T11:40:49;19.40;99.90
52187;DHT22;38161;53.020;6.598;2023-08-17T11:43:16;19.40;99.90
52187;DHT22;38161;53.020;6.598;2023-08-17T11:45:42;19.40;99.90
52187;DHT22;38161;53.020;6.598;2023-08-17T11:48:08;19.40;99.90
52187;DHT22;38161;53.020;6.598;2023-08-17T11:50:35;19.50;99.90
52187;DHT22;38161;53.020;6.598;2023-08-17T11:53:01;19.50;99.90
52187;DHT22;38161;53.020;6.598;2023-08-17T11:55:27;19.50;99.90
52187;DHT22;38161;53.020;6.598;2023-08-17T11:57:53;19.60;99.90
52187;DHT22;38161;53.020;6.598;2023-08-17T12:00:20;19.50;99.90
52187;DHT22;38161;53.020;6.598;2023-08-17T12:02:53;19.60;99.90
52187;DHT22;38161;53.020;6.598;2023-08-17T12:05:25;19.60;99.90
52187;DHT22;38161;53.020;6.598;2023-08-17T12:07:53;19.70;99.90
52187;DHT22;38161;53.020;6.598;2023-08-17T12:10:20;19.70;99.90
52187;DHT22;38161;53.020;6.598;2023-08-17T12:12:48;19.70;99.90
52187;DHT22;38161;53.020;6.598;2023-08-17T12:15:16;19.80;99.90
52187;DHT22;38161;53.020;6.598;2023-08-17T12:17:46;19.80;99.90
52187;DHT22;38161;53.020;6.598;2023-08-17T12:20:17;19.80;99.90
52187;DHT22;38161;53.020;6.598;2023-08-17T12:22:43;19.80;99.90
52187;DHT22;38161;53.020;6.598;2023-08-17T12:25:09;19.80;99.90
52187;DHT22;38161;53.020;6.598;2023-08-17T12:27:35;19.80;99.90
52187;DHT22;38161;53.020;6.598;2023-08-17T12:30:01;19.80;99.90
52187;DHT22;38161;53.020;6.598;2023-08-17T12:32:27;19.90;99.90
52187;DHT22;38161;53.020;6.598;2023-08-17T12:34:53;19.90;99.90
52187;DHT22;38161;53.020;6.598;2023-08-17T12:37:20;19.90;99.90
52187;DHT22;38161;53.020;6.598;2023-08-17T12:39:47;20.00;99.90
52187;DHT22;38161;53.020;6.598;2023-08-17T12:42:13;20.10;99.90
52187;DHT22;38161;53.020;6.598;2023-08-17T12:44:40;20.10;99.90
52187;DHT22;38161;53.020;6.598;2023-08-17T12:47:06;20.10;99.90
52187;DHT22;38161;53.020;6.598;2023-08-17T12:49:32;20.10;99.90
52187;DHT22;38161;53.020;6.598;2023-08-17T12:51:58;20.10;99.90
52187;DHT22;38161;53.020;6.598;2023-08-17T12:54:24;20.10;99.90
52187;DHT22;38161;53.020;6.598;2023-08-17T12:56:50;20.10;99.90
52187;DHT22;38161;53.020;6.598;2023-08-17T12:59:16;20.00;99.90
52187;DHT22;38161;53.020;6.598;2023-08-17T13:01:42;20.00;99.90
52187;DHT22;38161;53.020;6.598;2023-08-17T13:04:07;20.00;99.90
52187;DHT22;38161;53.020;6.598;2023-08-17T13:06:33;20.00;99.90
52187;DHT22;38161;53.020;6.598;2023-08-17T13:08:59;20.00;99.90
52187;DHT22;38161;53.020;6.598;2023-08-17T13:11:25;20.00;99.90
52187;DHT22;38161;53.020;6.598;2023-08-17T13:13:51;20.00;99.90
52187;DHT22;38161;53.020;6.598;2023-08-17T13:16:17;20.00;99.90
52187;DHT22;38161;53.020;6.598;2023-08-17T13:18:42;20.00;99.90
52187;DHT22;38161;53.020;6.598;2023-08-17T13:21:08;19.90;99.90
52187;DHT22;38161;53.020;6.598;2023-08-17T13:23:34;19.90;99.90
52187;DHT22;38161;53.020;6.598;2023-08-17T13:26:00;19.90;99.90
52187;DHT22;38161;53.020;6.598;2023-08-17T13:28:26;20.00;99.90
52187;DHT22;38161;53.020;6.598;2023-08-17T13:30:52;20.00;99.90
52187;DHT22;38161;53.020;6.598;2023-08-17T13:33:18;20.00;99.90
52187;DHT22;38161;53.020;6.598;2023-08-17T13:35:44;20.00;99.90
52187;DHT22;38161;53.020;6.598;2023-08-17T13:38:10;20.00;99.90
52187;DHT22;38161;53.020;6.598;2023-08-17T13:40:36;20.00;99.90
52187;DHT22;38161;53.020;6.598;2023-08-17T13:43:04;20.00;99.90
52187;DHT22;38161;53.020;6.598;2023-08-17T13:45:33;19.90;99.90
52187;DHT22;38161;53.020;6.598;2023-08-17T13:47:59;19.90;99.90
52187;DHT22;38161;53.020;6.598;2023-08-17T13:50:26;19.90;99.90
52187;DHT22;38161;53.020;6.598;2023-08-17T13:52:52;19.90;99.90
52187;DHT22;38161;53.020;6.598;2023-08-17T13:55:18;20.00;99.90
52187;DHT22;38161;53.020;6.598;2023-08-17T13:57:43;19.90;99.90
52187;DHT22;38161;53.020;6.598;2023-08-17T14:00:10;19.90;99.90
52187;DHT22;38161;53.020;6.598;2023-08-17T14:02:36;19.90;99.90
52187;DHT22;38161;53.020;6.598;2023-08-17T14:05:02;19.90;99.90
52187;DHT22;38161;53.020;6.598;2023-08-17T14:07:28;19.90;99.90
52187;DHT22;38161;53.020;6.598;2023-08-17T14:09:54;19.90;99.90
52187;DHT22;38161;53.020;6.598;2023-08-17T14:12:19;19.80;99.90
52187;DHT22;38161;53.020;6.598;2023-08-17T14:14:45;19.90;99.90
52187;DHT22;38161;53.020;6.598;2023-08-17T14:17:11;19.80;99.90
52187;DHT22;38161;53.020;6.598;2023-08-17T14:19:37;19.80;99.90
52187;DHT22;38161;53.020;6.598;2023-08-17T14:22:03;19.80;99.90
52187;DHT22;38161;53.020;6.598;2023-08-17T14:24:29;19.80;99.90
52187;DHT22;38161;53.020;6.598;2023-08-17T14:26:54;19.70;99.90
52187;DHT22;38161;53.020;6.598;2023-08-17T14:29:22;19.70;99.90
52187;DHT22;38161;53.020;6.598;2023-08-17T14:31:48;19.70;99.90
52187;DHT22;38161;53.020;6.598;2023-08-17T14:34:14;19.70;99.90
52187;DHT22;38161;53.020;6.598;2023-08-17T14:36:41;19.70;99.90
52187;DHT22;38161;53.020;6.598;2023-08-17T14:39:06;19.70;99.90
52187;DHT22;38161;53.020;6.598;2023-08-17T14:41:32;19.70;99.90
52187;DHT22;38161;53.020;6.598;2023-08-17T14:43:59;19.70;99.90
52187;DHT22;38161;53.020;6.598;2023-08-17T14:46:26;19.70;99.90
52187;DHT22;38161;53.020;6.598;2023-08-17T14:48:52;19.70;99.90
52187;DHT22;38161;53.020;6.598;2023-08-17T14:51:18;19.60;99.90
52187;DHT22;38161;53.020;6.598;2023-08-17T14:53:43;19.60;99.90
52187;DHT22;38161;53.020;6.598;2023-08-17T14:56:09;19.70;99.90
52187;DHT22;38161;53.020;6.598;2023-08-17T14:58:35;19.60;99.90
52187;DHT22;38161;53.020;6.598;2023-08-17T15:01:01;19.60;99.90
52187;DHT22;38161;53.020;6.598;2023-08-17T15:03:27;19.60;99.90
52187;DHT22;38161;53.020;6.598;2023-08-17T15:05:52;19.60;99.90
52187;DHT22;38161;53.020;6.598;2023-08-17T15:08:18;19.60;99.90
52187;DHT22;38161;53.020;6.598;2023-08-17T15:10:46;19.60;99.90
52187;DHT22;38161;53.020;6.598;2023-08-17T15:13:14;19.60;99.90
52187;DHT22;38161;53.020;6.598;2023-08-17T15:15:41;19.60;99.90
52187;DHT22;38161;53.020;6.598;2023-08-17T15:18:09;19.60;99.90
52187;DHT22;38161;53.020;6.598;2023-08-17T15:20:35;19.60;99.90
52187;DHT22;38161;53.020;6.598;2023-08-17T15:23:01;19.60;99.90
52187;DHT22;38161;53.020;6.598;2023-08-17T15:25:27;19.60;99.90
52187;DHT22;38161;53.020;6.598;2023-08-17T15:27:53;19.70;99.90
52187;DHT22;38161;53.020;6.598;2023-08-17T15:30:19;19.70;99.90
52187;DHT22;38161;53.020;6.598;2023-08-17T15:32:45;19.80;99.90
52187;DHT22;38161;53.020;6.598;2023-08-17T15:35:11;19.70;99.90